Time;durP1;ratioP1;P1;durP2;ratioP2;P2;SDS_P1;SDS_P2;PMS_P1;PMS_P2;Temp;Humidity;BMP_temperature;BMP_pressure;BME280_temperature;BME280_humidity;BME280_pressure;Samples;Min_cycle;Max_cycle;Signal;HPM_P1;HPM_P2
2022/01/05 06:49:02;;;;;;;4.25;1.48;;;;;;;;;;10597019;27;20356;-83
2022/01/05 06:54:03;;;;;;;8.20;1.98;;;;;;;;;;10617334;28;20097;-83
2022/01/05 06:59:04;;;;;;;8.13;2.53;;;;;;;;;;10604597;28;20134;-83
2022/01/05 07:04:05;;;;;;;8.32;2.30;;;;;;;;;;10589628;28;20031;-83
2022/01/05 07:09:06;;;;;;;8.80;2.33;;;;;;;;;;10587630;28;20054;-83
2022/01/05 07:14:07;;;;;;;4.63;1.30;;;;;;;;;;10586933;28;20041;-83
2022/01/05 07:19:08;;;;;;;9.90;2.75;;;;;;;;;;10584315;28;20024;-82
2022/01/05 07:24:12;;;;;;;6.20;2.60;;;;;;;;;;10582344;28;20028;-82
2022/01/05 07:29:14;;;;;;;5.93;2.08;;;;;;;;;;10589284;28;20042;-81
2022/01/05 07:34:15;;;;;;;10.38;3.00;;;;;;;;;;10605127;28;20028;-82
2022/01/05 07:39:16;;;;;;;8.90;2.78;;;;;;;;;;10590849;28;20028;-82
2022/01/05 07:44:17;;;;;;;6.72;2.78;;;;;;;;;;10593232;28;20032;-83
2022/01/05 07:49:18;;;;;;;6.43;2.58;;;;;;;;;;10593770;28;20032;-82
2022/01/05 07:54:19;;;;;;;6.90;2.38;;;;;;;;;;10588401;28;20059;-82
2022/01/05 07:59:20;;;;;;;9.55;3.35;;;;;;;;;;10568964;28;20028;-82
2022/01/05 08:04:21;;;;;;;4.88;1.92;;;;;;;;;;10560537;28;20023;-81
2022/01/05 08:09:22;;;;;;;7.88;2.20;;;;;;;;;;10559680;28;20375;-82
2022/01/05 08:14:23;;;;;;;;;;;;;;;;;;10561535;28;20050;-81
2022/01/05 08:19:24;;;;;;;7.72;2.30;;;;;;;;;;10557062;28;19953;-81
2022/01/05 08:24:26;;;;;;;6.80;2.70;;;;;;;;;;10555138;28;20486;-81
2022/01/05 08:29:27;;;;;;;9.75;3.25;;;;;;;;;;10554376;28;20024;-81
2022/01/05 08:34:29;;;;;;;;;;;;;;;;;;10554340;28;20032;-82
2022/01/05 08:39:30;;;;;;;;;;;;;;;;;;10553707;28;19911;-82
2022/01/05 08:44:31;;;;;;;7.68;2.70;;;;;;;;;;10554239;28;19919;-81
2022/01/05 08:49:31;;;;;;;;;;;;;;;;;;10554201;28;20055;-82
2022/01/05 08:54:33;;;;;;;6.22;2.50;;;;;;;;;;10557704;28;19976;-82
2022/01/05 08:59:33;;;;;;;;;;;;;;;;;;10555220;28;20501;-81
2022/01/05 09:04:34;;;;;;;8.13;2.75;;;;;;;;;;10553720;28;19910;-82
2022/01/05 09:09:36;;;;;;;;;;;;;;;;;;10554674;28;20131;-82
2022/01/05 09:14:37;;;;;;;7.22;2.83;;;;;;;;;;10557946;28;20353;-82
2022/01/05 09:20:07;;;;;;;9.35;3.40;;;;;;;;;;10560128;28;20047;-83
2022/01/05 09:25:26;;;;;;;8.82;3.38;;;;;;;;;;10544010;28;20474;-82
2022/01/05 09:31:02;;;;;;;7.25;3.15;;;;;;;;;;10553986;28;20036;-83
2022/01/05 09:36:12;;;;;;;8.98;2.83;;;;;;;;;;10542064;28;20074;-83
2022/01/05 09:46:34;;;;;;;7.30;2.63;;;;;;;;;;10579471;28;20040;-83
2022/01/05 09:51:37;;;;;;;9.18;3.72;;;;;;;;;;10601046;28;20032;-83
2022/01/05 09:56:39;;;;;;;8.27;2.80;;;;;;;;;;10564777;28;20047;-83
2022/01/05 10:01:58;;;;;;;8.32;3.28;;;;;;;;;;10564808;28;20043;-84
2022/01/05 10:07:00;;;;;;;8.15;2.80;;;;;;;;;;10567111;28;20050;-84
2022/01/05 10:12:29;;;;;;;8.98;3.30;;;;;;;;;;10562744;28;20024;-83
2022/01/05 10:17:33;;;;;;;8.02;2.78;;;;;;;;;;10561959;28;20084;-83
2022/01/05 10:22:45;;;;;;;6.90;2.28;;;;;;;;;;10564768;28;20023;-84
2022/01/05 10:27:56;;;;;;;7.40;2.83;;;;;;;;;;10563341;28;20123;-83
2022/01/05 10:32:59;;;;;;;10.25;4.47;;;;;;;;;;10560499;28;20039;-82
2022/01/05 10:38:08;;;;;;;10.02;4.50;;;;;;;;;;10561984;28;20089;-83
2022/01/05 10:43:14;;;;;;;5.68;2.97;;;;;;;;;;10571401;28;20032;-83
2022/01/05 10:48:16;;;;;;;8.18;3.28;;;;;;;;;;10581230;28;20031;-82
2022/01/05 10:53:20;;;;;;;8.52;3.20;;;;;;;;;;10582797;28;20096;-82
2022/01/05 10:58:28;;;;;;;6.05;2.40;;;;;;;;;;10578675;28;20032;-82
2022/01/05 11:03:35;;;;;;;8.18;3.13;;;;;;;;;;10568535;28;20077;-83
2022/01/05 11:09:00;;;;;;;6.88;3.13;;;;;;;;;;10566707;28;20493;-82
2022/01/05 11:14:16;;;;;;;4.07;2.25;;;;;;;;;;10561604;28;20081;-82
2022/01/05 11:19:35;;;;;;;7.93;3.53;;;;;;;;;;10561933;28;20035;-82
2022/01/05 11:24:54;;;;;;;8.48;2.90;;;;;;;;;;10430515;22;20042;-80
2022/01/05 11:29:57;;;;;;;7.22;3.50;;;;;;;;;;10408070;28;20094;-81
2022/01/05 11:35:07;;;;;;;10.40;5.07;;;;;;;;;;10415203;28;20030;-82
2022/01/05 11:40:08;;;;;;;10.27;5.03;;;;;;;;;;10417645;28;20032;-82
2022/01/05 11:45:28;;;;;;;13.80;8.63;;;;;;;;;;10419125;28;20060;-82
2022/01/05 11:50:29;;;;;;;13.98;8.55;;;;;;;;;;10418626;28;20030;-82
2022/01/05 11:55:31;;;;;;;13.60;7.65;;;;;;;;;;10419973;28;20105;-83
2022/01/05 12:00:40;;;;;;;12.27;8.80;;;;;;;;;;10420704;28;20053;-82
2022/01/05 12:06:00;;;;;;;9.95;5.72;;;;;;;;;;10429076;28;20060;-80
2022/01/05 12:11:01;;;;;;;5.63;2.90;;;;;;;;;;10419056;28;20073;-81
2022/01/05 12:16:04;;;;;;;8.27;3.95;;;;;;;;;;10418198;28;20034;-83
2022/01/05 12:21:05;;;;;;;6.63;2.83;;;;;;;;;;10415545;28;20042;-84
2022/01/05 12:26:09;;;;;;;8.85;3.28;;;;;;;;;;10414824;28;20034;-83
2022/01/05 12:31:11;;;;;;;8.73;4.00;;;;;;;;;;10414018;28;20097;-83
2022/01/05 12:36:17;;;;;;;8.65;3.53;;;;;;;;;;10414872;28;20018;-84
2022/01/05 12:41:35;;;;;;;7.47;3.78;;;;;;;;;;10403336;28;20014;-83
2022/01/05 12:46:36;;;;;;;9.10;4.60;;;;;;;;;;10418924;28;20038;-82
2022/01/05 12:51:41;;;;;;;6.30;2.80;;;;;;;;;;10413463;28;20025;-83
2022/01/05 12:56:44;;;;;;;8.48;3.67;;;;;;;;;;10409262;28;20038;-82
2022/01/05 13:01:45;;;;;;;5.75;2.75;;;;;;;;;;10412703;28;20026;-81
2022/01/05 13:06:46;;;;;;;;;;;;;;;;;;10412301;28;20032;-81
2022/01/05 13:11:52;;;;;;;8.38;3.45;;;;;;;;;;10408373;28;19944;-81
2022/01/05 13:17:07;;;;;;;5.60;1.90;;;;;;;;;;10408973;28;20022;-81
2022/01/05 13:22:08;;;;;;;8.38;4.15;;;;;;;;;;10407228;28;20036;-80
2022/01/05 13:27:12;;;;;;;5.15;2.80;;;;;;;;;;10406535;28;20030;-82
2022/01/05 13:32:15;;;;;;;5.97;1.98;;;;;;;;;;10406358;28;20037;-83
2022/01/05 13:37:30;;;;;;;4.57;2.42;;;;;;;;;;10401605;28;20037;-81
2022/01/05 13:42:51;;;;;;;8.10;2.92;;;;;;;;;;10403685;28;20026;-82
2022/01/05 13:47:59;;;;;;;6.80;2.72;;;;;;;;;;10401765;28;20148;-81
2022/01/05 13:53:01;;;;;;;8.02;3.90;;;;;;;;;;10401064;28;20034;-81
2022/01/05 13:58:22;;;;;;;4.28;1.98;;;;;;;;;;10392498;28;20124;-81
2022/01/05 14:03:29;;;;;;;6.38;2.47;;;;;;;;;;10386814;28;20026;-80
2022/01/05 14:08:30;;;;;;;6.05;2.20;;;;;;;;;;10388968;28;20472;-80
2022/01/05 14:13:31;;;;;;;4.68;2.15;;;;;;;;;;10383271;28;20037;-80
2022/01/05 14:18:42;;;;;;;6.32;2.00;;;;;;;;;;10386842;28;20036;-81
2022/01/05 14:23:48;;;;;;;5.28;2.10;;;;;;;;;;10386845;28;20053;-81
2022/01/05 14:28:50;;;;;;;4.75;1.80;;;;;;;;;;10371203;28;20121;-80
2022/01/05 14:34:02;;;;;;;4.95;1.75;;;;;;;;;;10389152;28;20029;-81
2022/01/05 14:39:05;;;;;;;6.90;2.78;;;;;;;;;;10392743;28;20026;-81
2022/01/05 14:44:09;;;;;;;4.88;1.92;;;;;;;;;;10385226;28;20120;-81
2022/01/05 14:49:12;;;;;;;5.78;2.10;;;;;;;;;;10385141;28;20070;-82
2022/01/05 14:54:13;;;;;;;4.65;1.70;;;;;;;;;;10387205;28;20399;-81
2022/01/05 14:59:14;;;;;;;5.28;1.92;;;;;;;;;;10401476;28;20026;-81
2022/01/05 15:04:16;;;;;;;4.70;2.30;;;;;;;;;;10389196;28;20026;-80
2022/01/05 15:09:17;;;;;;;3.70;1.90;;;;;;;;;;10388250;28;20022;-81
2022/01/05 15:14:22;;;;;;;6.45;2.30;;;;;;;;;;10390408;28;20017;-81
2022/01/05 15:19:23;;;;;;;5.10;2.28;;;;;;;;;;10370930;28;20499;-83
2022/01/05 15:24:44;;;;;;;5.72;1.88;;;;;;;;;;10385984;28;20037;-82
2022/01/05 15:29:47;;;;;;;;;;;;;;;;;;10386665;28;20044;-82
2022/01/05 15:34:48;;;;;;;5.93;2.15;;;;;;;;;;10386326;28;20375;-83
2022/01/05 15:40:00;;;;;;;4.03;1.80;;;;;;;;;;10385294;28;20090;-83
2022/01/05 15:45:07;;;;;;;4.95;1.52;;;;;;;;;;10390014;28;20060;-83
2022/01/05 15:50:09;;;;;;;4.60;1.67;;;;;;;;;;10393597;28;20040;-83
2022/01/05 15:55:47;;;;;;;4.50;2.50;;;;;;;;;;10390061;28;20037;-83
2022/01/05 16:06:33;;;;;;;5.97;1.77;;;;;;;;;;10416945;28;20097;-83
2022/01/05 16:11:44;;;;;;;4.25;1.75;;;;;;;;;;10413076;28;20567;-83
2022/01/05 16:16:45;;;;;;;3.90;2.00;;;;;;;;;;10400640;28;20037;-83
2022/01/05 16:21:47;;;;;;;3.70;1.40;;;;;;;;;;10397025;28;20034;-83
2022/01/05 16:27:04;;;;;;;4.45;1.60;;;;;;;;;;10396947;28;20033;-83
2022/01/05 16:32:07;;;;;;;4.10;1.52;;;;;;;;;;10382430;28;20052;-83
2022/01/05 16:37:08;;;;;;;3.33;1.67;;;;;;;;;;10392081;28;20085;-83
2022/01/05 16:42:09;;;;;;;;;;;;;;;;;;10390552;28;20495;-83
2022/01/05 16:47:12;;;;;;;4.00;1.80;;;;;;;;;;10397033;28;19920;-83
2022/01/05 16:52:18;;;;;;;2.80;1.45;;;;;;;;;;10399376;28;20075;-83
2022/01/05 17:02:32;;;;;;;3.20;1.58;;;;;;;;;;10397237;28;20057;-83
2022/01/05 17:07:33;;;;;;;;;;;;;;;;;;10392004;28;20057;-82
2022/01/05 17:12:34;;;;;;;2.78;1.10;;;;;;;;;;10414961;28;19910;-82
2022/01/05 17:17:39;;;;;;;4.30;2.20;;;;;;;;;;10394199;28;20041;-85
